createdAt,value
2023-06-28T00:02:36.388Z,12.60
2023-06-28T00:06:37.871Z,12.68
2023-06-28T00:10:39.500Z,12.80
2023-06-28T00:14:41.118Z,12.87
2023-06-28T00:18:43.888Z,12.90
2023-06-28T00:22:45.493Z,12.82
2023-06-28T00:26:46.944Z,12.77
2023-06-28T00:30:48.368Z,12.73
2023-06-28T00:34:51.260Z,12.65
2023-06-28T00:38:52.708Z,12.55
2023-06-28T00:42:54.156Z,12.47
2023-06-28T00:46:55.940Z,12.39
2023-06-28T00:50:58.994Z,12.34
2023-06-28T00:55:00.764Z,12.25
2023-06-28T00:59:03.844Z,12.22
2023-06-28T01:03:05.417Z,12.20
2023-06-28T01:07:08.968Z,12.19
2023-06-28T01:11:11.379Z,12.12
2023-06-28T01:15:12.943Z,12.08
2023-06-28T01:19:14.898Z,12.03
2023-06-28T01:23:18.030Z,12.11
2023-06-28T01:27:19.593Z,12.14
2023-06-28T01:31:21.283Z,12.06
2023-06-28T01:35:22.777Z,12.02
2023-06-28T01:39:26.575Z,11.98
2023-06-28T01:43:28.303Z,11.91
2023-06-28T01:47:29.958Z,11.92
2023-06-28T01:51:31.478Z,11.95
2023-06-28T01:55:34.286Z,12.03
2023-06-28T01:59:35.737Z,12.12
2023-06-28T02:03:37.225Z,12.15
2023-06-28T02:07:38.955Z,12.20
2023-06-28T02:11:41.823Z,12.27
2023-06-28T02:15:43.304Z,12.30
2023-06-28T02:19:44.774Z,12.33
2023-06-28T02:23:46.239Z,12.35
2023-06-28T02:27:49.044Z,12.36
2023-06-28T02:31:50.570Z,12.39
2023-06-28T02:35:52.028Z,12.37
2023-06-28T02:39:53.493Z,12.32
2023-06-28T02:43:56.269Z,12.20
2023-06-28T02:47:57.738Z,12.15
2023-06-28T02:51:59.239Z,12.10
2023-06-28T02:56:00.677Z,12.02
2023-06-28T03:00:04.040Z,11.93
2023-06-28T03:04:05.609Z,11.85
2023-06-28T03:08:07.168Z,11.82
2023-06-28T03:12:10.079Z,11.76
2023-06-28T03:16:12.901Z,11.70
2023-06-28T03:20:14.346Z,11.68
2023-06-28T03:24:15.829Z,11.66
2023-06-28T03:28:17.317Z,11.65
2023-06-28T03:32:20.118Z,11.64
2023-06-28T03:36:21.634Z,11.63
2023-06-28T03:40:23.561Z,11.68
2023-06-28T03:44:25.069Z,11.69
2023-06-28T03:48:27.857Z,11.77
2023-06-28T03:52:29.286Z,11.88
2023-06-28T03:56:30.735Z,11.99
2023-06-28T04:00:32.174Z,12.06
2023-06-28T04:04:35.045Z,12.08
2023-06-28T04:08:36.534Z,12.06
2023-06-28T04:12:38.181Z,12.09
2023-06-28T04:16:39.653Z,12.09
2023-06-28T04:20:42.899Z,12.17
2023-06-28T04:24:44.640Z,12.17
2023-06-28T04:28:46.106Z,12.19
2023-06-28T04:32:47.574Z,12.21
2023-06-28T04:36:55.058Z,12.19
2023-06-28T04:41:06.575Z,12.27
2023-06-28T04:45:08.997Z,12.36
2023-06-28T04:49:10.454Z,12.40
2023-06-28T04:53:13.239Z,12.39
2023-06-28T04:57:15.741Z,12.35
2023-06-28T05:01:18.070Z,12.35
2023-06-28T05:05:19.571Z,12.33
2023-06-28T05:09:22.391Z,12.26
2023-06-28T05:13:23.860Z,12.22
2023-06-28T05:17:25.385Z,12.28
2023-06-28T05:21:26.949Z,12.39
2023-06-28T05:25:29.769Z,12.52
2023-06-28T05:29:32.500Z,12.61
2023-06-28T05:33:34.153Z,12.64
2023-06-28T05:37:36.618Z,12.61
2023-06-28T05:41:39.419Z,12.60
2023-06-28T05:45:40.892Z,12.63
2023-06-28T05:49:42.424Z,12.76
2023-06-28T05:53:43.881Z,12.86
2023-06-28T05:57:47.255Z,13.09
2023-06-28T06:01:48.794Z,13.29
2023-06-28T06:05:50.323Z,13.46
2023-06-28T06:09:51.827Z,13.62
2023-06-28T06:13:54.602Z,13.81
2023-06-28T06:17:56.126Z,14.01
2023-06-28T06:21:57.791Z,14.18
2023-06-28T06:25:59.335Z,14.24
2023-06-28T06:30:02.340Z,14.28
2023-06-28T06:34:03.901Z,14.40
2023-06-28T06:38:05.364Z,14.69
2023-06-28T06:42:07.019Z,14.88
2023-06-28T06:46:09.789Z,15.09
2023-06-28T06:50:11.531Z,15.35
2023-06-28T06:54:13.005Z,15.73
2023-06-28T06:58:14.457Z,16.03
2023-06-28T07:02:17.235Z,15.88
2023-06-28T07:06:18.690Z,15.83
2023-06-28T07:10:20.366Z,15.61
2023-06-28T07:14:21.840Z,15.46
2023-06-28T07:18:24.775Z,15.40
2023-06-28T07:22:26.241Z,15.69
2023-06-28T07:26:27.743Z,15.94
2023-06-28T07:30:30.816Z,16.09
2023-06-28T07:34:33.626Z,16.41
2023-06-28T07:38:35.864Z,16.14
2023-06-28T07:42:37.335Z,16.15
2023-06-28T07:46:38.767Z,16.10
2023-06-28T07:50:42.205Z,16.08
2023-06-28T07:54:43.663Z,16.26
2023-06-28T07:58:45.126Z,16.47
2023-06-28T08:02:46.594Z,16.66
2023-06-28T08:06:49.737Z,16.74
2023-06-28T08:10:51.243Z,16.77
2023-06-28T08:14:52.687Z,16.97
2023-06-28T08:18:54.369Z,17.35
2023-06-28T08:22:57.203Z,16.79
2023-06-28T08:26:58.682Z,16.77
2023-06-28T08:31:00.409Z,17.14
2023-06-28T08:35:02.019Z,17.33
2023-06-28T08:39:04.950Z,17.58
2023-06-28T08:43:07.121Z,17.23
2023-06-28T08:47:09.573Z,17.40
2023-06-28T08:51:11.090Z,17.40
2023-06-28T08:55:16.011Z,17.50
2023-06-28T08:59:17.757Z,17.72
2023-06-28T09:03:19.817Z,17.19
2023-06-28T09:07:22.659Z,17.00
2023-06-28T09:11:25.762Z,17.18
2023-06-28T09:15:27.249Z,17.03
2023-06-28T09:19:28.691Z,17.43
2023-06-28T09:23:31.707Z,17.45
2023-06-28T09:27:34.487Z,17.75
2023-06-28T09:31:40.206Z,18.39
2023-06-28T09:35:42.021Z,18.31
2023-06-28T09:39:43.944Z,17.85
2023-06-28T09:43:47.685Z,17.54
2023-06-28T09:47:54.805Z,17.99
2023-06-28T09:51:57.584Z,17.97
2023-06-28T09:55:59.167Z,17.37
2023-06-28T10:00:03.258Z,17.33
2023-06-28T10:04:06.871Z,17.94
2023-06-28T10:08:10.037Z,18.60
2023-06-28T10:12:14.714Z,18.33
2023-06-28T10:16:19.985Z,18.01
2023-06-28T10:20:21.611Z,18.47
2023-06-28T10:24:23.787Z,18.79
2023-06-28T10:28:28.370Z,19.45
2023-06-28T10:32:32.517Z,19.44
2023-06-28T10:36:34.028Z,19.01
2023-06-28T10:40:35.792Z,19.41
2023-06-28T10:44:51.043Z,19.44
2023-06-28T10:48:57.792Z,18.78
2023-06-28T10:52:59.273Z,19.05
2023-06-28T10:57:09.587Z,20.03
2023-06-28T11:01:12.178Z,20.53
2023-06-28T11:05:38.709Z,20.59
2023-06-28T11:09:40.247Z,20.09
2023-06-28T11:13:46.601Z,19.49
2023-06-28T11:17:48.305Z,19.30
2023-06-28T11:21:57.329Z,19.48
2023-06-28T11:26:03.117Z,19.42
2023-06-28T11:30:05.445Z,19.65
2023-06-28T11:34:07.242Z,20.02
2023-06-28T11:38:11.650Z,20.61
2023-06-28T11:42:14.101Z,20.53
2023-06-28T11:46:17.802Z,20.93
2023-06-28T11:50:19.298Z,20.37
2023-06-28T11:54:22.086Z,20.77
2023-06-28T11:58:27.672Z,20.68
2023-06-28T12:02:29.137Z,19.88
2023-06-28T12:06:30.649Z,20.62
2023-06-28T12:10:35.186Z,21.10
2023-06-28T12:14:39.494Z,21.44
2023-06-28T12:18:55.344Z,21.78
2023-06-28T12:22:56.781Z,21.21
2023-06-28T12:26:59.664Z,21.25
2023-06-28T12:31:01.118Z,21.00
2023-06-28T12:35:02.775Z,22.19
2023-06-28T12:39:04.258Z,21.79
2023-06-28T12:43:14.504Z,23.47
2023-06-28T12:47:16.249Z,23.94
2023-06-28T12:51:17.750Z,23.53
2023-06-28T12:55:19.217Z,23.55
2023-06-28T12:59:22.002Z,21.98
2023-06-28T13:03:26.088Z,22.47
2023-06-28T13:07:27.525Z,23.84
2023-06-28T13:11:29.038Z,24.27
2023-06-28T13:15:31.841Z,22.74
2023-06-28T13:19:33.325Z,22.18
2023-06-28T13:23:34.760Z,22.82
2023-06-28T13:27:36.327Z,22.18
2023-06-28T13:31:39.250Z,21.91
2023-06-28T13:35:40.898Z,22.06
2023-06-28T13:39:42.441Z,22.27
2023-06-28T13:43:43.894Z,21.98
2023-06-28T13:47:46.870Z,21.73
2023-06-28T13:51:48.756Z,22.85
2023-06-28T13:55:50.808Z,23.54
2023-06-28T13:59:52.331Z,25.20
2023-06-28T14:03:55.187Z,24.74
2023-06-28T14:07:56.669Z,23.25
2023-06-28T14:11:59.784Z,22.80
2023-06-28T14:16:03.428Z,22.35
2023-06-28T14:20:07.698Z,22.56
2023-06-28T14:24:09.193Z,24.53
2023-06-28T14:28:10.684Z,23.11
2023-06-28T14:32:12.149Z,23.22
2023-06-28T14:36:15.059Z,25.97
2023-06-28T14:40:16.934Z,24.13
2023-06-28T14:44:18.400Z,23.74
2023-06-28T14:48:19.922Z,23.21
2023-06-28T14:52:22.728Z,24.02
2023-06-28T14:56:24.303Z,23.32
2023-06-28T15:00:25.762Z,22.64
2023-06-28T15:04:28.989Z,22.27
2023-06-28T15:08:33.343Z,23.35
2023-06-28T15:12:34.823Z,26.19
2023-06-28T15:16:36.483Z,27.31
2023-06-28T15:20:41.061Z,25.12
2023-06-28T15:24:44.333Z,23.43
2023-06-28T15:28:45.818Z,22.41
2023-06-28T15:32:47.327Z,22.55
2023-06-28T15:36:48.837Z,23.45
2023-06-28T15:40:51.677Z,23.70
2023-06-28T15:44:53.157Z,22.11
2023-06-28T15:48:54.620Z,24.98
2023-06-28T15:52:56.232Z,24.23
2023-06-28T15:56:59.036Z,25.74
2023-06-28T16:01:12.181Z,26.80
2023-06-28T16:05:13.761Z,27.14
2023-06-28T16:09:15.242Z,27.28
2023-06-28T16:13:18.033Z,27.96
2023-06-28T16:17:19.493Z,29.04
2023-06-28T16:21:21.244Z,27.33
2023-06-28T16:25:22.734Z,24.98
2023-06-28T16:29:25.635Z,26.61
2023-06-28T16:33:27.134Z,27.54
2023-06-28T16:37:28.606Z,26.51
2023-06-28T16:41:30.073Z,27.66
2023-06-28T16:45:32.930Z,27.92
2023-06-28T16:49:34.397Z,27.28
2023-06-28T16:53:35.867Z,26.37
2023-06-28T16:57:37.355Z,25.26
2023-06-28T17:01:40.245Z,24.88
2023-06-28T17:05:43.310Z,23.55
2023-06-28T17:09:45.961Z,23.66
2023-06-28T17:13:47.518Z,23.54
2023-06-28T17:17:50.394Z,23.15
2023-06-28T17:21:51.878Z,22.94
2023-06-28T17:25:53.496Z,22.72
2023-06-28T17:29:54.991Z,22.89
2023-06-28T17:33:57.788Z,23.39
2023-06-28T17:37:59.261Z,23.44
2023-06-28T17:42:00.737Z,22.48
2023-06-28T17:46:02.436Z,21.75
2023-06-28T17:50:06.521Z,21.31
2023-06-28T17:54:08.133Z,21.17
2023-06-28T17:58:09.649Z,20.96
2023-06-28T18:02:11.130Z,20.75
2023-06-28T18:06:14.016Z,20.48
2023-06-28T18:10:15.556Z,20.35
2023-06-28T18:14:17.022Z,20.26
2023-06-28T18:18:18.515Z,20.12
2023-06-28T18:22:21.341Z,19.93
2023-06-28T18:26:22.838Z,19.79
2023-06-28T18:30:24.341Z,19.66
2023-06-28T18:34:25.798Z,19.56
2023-06-28T18:38:28.588Z,19.35
2023-06-28T18:42:30.059Z,19.19
2023-06-28T18:46:31.520Z,19.00
2023-06-28T18:50:33.043Z,18.75
2023-06-28T18:54:35.820Z,18.48
2023-06-28T18:58:37.334Z,18.30
2023-06-28T19:02:38.991Z,18.16
2023-06-28T19:06:40.786Z,18.14
2023-06-28T19:10:43.662Z,17.99
2023-06-28T19:14:45.382Z,17.65
2023-06-28T19:18:46.853Z,17.39
2023-06-28T19:22:48.301Z,17.37
2023-06-28T19:26:51.072Z,17.31
2023-06-28T19:30:52.511Z,17.18
2023-06-28T19:34:54.020Z,17.07
2023-06-28T19:38:55.505Z,16.98
2023-06-28T19:42:58.294Z,16.92
2023-06-28T19:46:59.754Z,16.82
2023-06-28T19:51:01.238Z,16.77
2023-06-28T19:55:02.718Z,16.90
2023-06-28T19:59:05.483Z,16.88
2023-06-28T20:03:06.932Z,16.74
2023-06-28T20:07:08.470Z,16.52
2023-06-28T20:11:10.000Z,16.17
2023-06-28T20:15:12.821Z,15.77
2023-06-28T20:19:14.394Z,15.48
2023-06-28T20:23:15.844Z,15.36
2023-06-28T20:27:17.636Z,15.37
2023-06-28T20:31:20.514Z,15.47
2023-06-28T20:35:22.076Z,15.54
2023-06-28T20:39:23.910Z,15.44
2023-06-28T20:43:25.361Z,15.22
2023-06-28T20:47:28.178Z,15.09
2023-06-28T20:51:29.632Z,14.97
2023-06-28T20:55:31.647Z,14.86
2023-06-28T20:59:33.504Z,14.79
2023-06-28T21:03:36.308Z,14.69
2023-06-28T21:07:38.370Z,14.66
2023-06-28T21:11:39.888Z,14.67
2023-06-28T21:15:42.822Z,14.68
2023-06-28T21:19:46.584Z,14.65
2023-06-28T21:23:48.054Z,14.60
2023-06-28T21:27:49.523Z,14.49
2023-06-28T21:31:51.088Z,14.49
2023-06-28T21:35:53.979Z,14.44
2023-06-28T21:39:55.434Z,14.34
2023-06-28T21:43:57.041Z,14.25
2023-06-28T21:47:58.491Z,14.16
2023-06-28T21:52:01.309Z,14.09
2023-06-28T21:56:02.797Z,13.97
2023-06-28T22:00:04.787Z,13.87
2023-06-28T22:04:06.228Z,13.79
2023-06-28T22:08:08.995Z,13.68
2023-06-28T22:12:10.545Z,13.60
2023-06-28T22:16:12.047Z,13.55
2023-06-28T22:20:13.539Z,13.57
2023-06-28T22:24:16.308Z,13.56
2023-06-28T22:28:17.768Z,13.53
2023-06-28T22:32:19.247Z,13.46
2023-06-28T22:36:20.809Z,13.41
2023-06-28T22:40:23.608Z,13.35
2023-06-28T22:44:25.186Z,13.25
2023-06-28T22:48:26.643Z,13.20
2023-06-28T22:52:28.143Z,13.16
2023-06-28T22:56:30.899Z,13.07
2023-06-28T23:00:32.350Z,13.00
2023-06-28T23:04:33.806Z,12.99
2023-06-28T23:08:35.277Z,12.97
2023-06-28T23:12:38.122Z,12.97
2023-06-28T23:16:39.591Z,12.99
2023-06-28T23:20:41.207Z,12.98
2023-06-28T23:24:42.677Z,12.97
2023-06-28T23:28:45.681Z,12.95
2023-06-28T23:32:47.181Z,12.94
2023-06-28T23:36:48.647Z,12.90
2023-06-28T23:40:50.083Z,12.81
2023-06-28T23:44:52.851Z,12.74
2023-06-28T23:48:54.290Z,12.65
2023-06-28T23:52:55.786Z,12.53
2023-06-28T23:56:59.932Z,12.44
